Time;durP1;ratioP1;P1;durP2;ratioP2;P2;SDS_P1;SDS_P2;PMS_P1;PMS_P2;Temp;Humidity;BMP_temperature;BMP_pressure;BME280_temperature;BME280_humidity;BME280_pressure;Samples;Min_cycle;Max_cycle;Signal;HPM_P1;HPM_P2
2023/12/17 00:01:05;;;;;;;29.87;14.10;;;2.70;88.30;;;;;;5032870;28;20205;-75
2023/12/17 00:03:30;;;;;;;28.67;14.43;;;2.70;88.40;;;;;;5041056;28;20422;-76
2023/12/17 00:05:56;;;;;;;38.07;14.73;;;2.80;88.60;;;;;;5038091;28;21167;-74
2023/12/17 00:08:22;;;;;;;34.97;14.10;;;2.80;88.60;;;;;;5042096;28;20555;-75
2023/12/17 00:10:51;;;;;;;28.93;14.17;;;2.80;88.70;;;;;;5041022;28;20881;-73
2023/12/17 00:13:18;;;;;;;20.30;11.83;;;2.80;88.70;;;;;;5042389;28;20455;-74
2023/12/17 00:15:44;;;;;;;23.00;12.05;;;2.90;88.90;;;;;;5038755;28;20444;-73
2023/12/17 00:18:11;;;;;;;22.73;12.07;;;2.90;88.70;;;;;;5040039;28;20259;-74
2023/12/17 00:20:37;;;;;;;23.90;10.97;;;3.00;88.70;;;;;;5034672;28;20549;-72
2023/12/17 00:23:04;;;;;;;21.83;11.77;;;2.90;88.60;;;;;;5037773;28;20939;-74
2023/12/17 00:25:30;;;;;;;26.20;13.70;;;2.90;88.40;;;;;;5040406;28;21092;-76
2023/12/17 00:27:56;;;;;;;24.42;13.38;;;2.80;88.40;;;;;;5050658;28;20193;-74
2023/12/17 00:30:22;;;;;;;27.07;13.37;;;2.70;88.30;;;;;;5038660;28;20216;-75
2023/12/17 00:32:48;;;;;;;28.70;12.82;;;2.80;88.30;;;;;;5035564;28;20233;-74
2023/12/17 00:35:13;;;;;;;26.93;13.10;;;2.70;88.10;;;;;;5039668;28;20200;-75
2023/12/17 00:37:39;;;;;;;23.43;12.40;;;2.70;88.00;;;;;;5043549;28;20177;-75
2023/12/17 00:40:06;;;;;;;21.20;10.50;;;2.70;88.10;;;;;;5035090;28;20204;-74
2023/12/17 00:42:32;;;;;;;26.97;11.77;;;2.70;88.10;;;;;;5036131;28;20418;-75
2023/12/17 00:44:57;;;;;;;18.93;10.33;;;2.80;88.10;;;;;;5034142;28;20503;-77
2023/12/17 00:47:23;;;;;;;18.83;9.53;;;2.80;88.10;;;;;;5043119;28;20203;-75
2023/12/17 00:49:49;;;;;;;19.27;10.37;;;2.90;88.00;;;;;;5044014;28;20197;-76
2023/12/17 00:52:14;;;;;;;16.33;9.80;;;2.90;88.00;;;;;;5039891;28;20251;-76
2023/12/17 00:54:40;;;;;;;17.63;9.00;;;2.90;88.00;;;;;;5040963;28;20193;-75
2023/12/17 00:57:05;;;;;;;25.20;12.03;;;2.90;88.00;;;;;;5042264;28;20181;-75
2023/12/17 00:59:31;;;;;;;20.73;10.67;;;2.90;87.80;;;;;;5039074;28;20184;-76
2023/12/17 01:01:56;;;;;;;19.70;11.50;;;2.90;87.80;;;;;;5044624;28;20615;-75
2023/12/17 01:04:22;;;;;;;17.70;9.93;;;2.80;87.80;;;;;;5051992;28;20299;-74
2023/12/17 01:06:48;;;;;;;16.57;8.07;;;2.80;87.70;;;;;;5039720;28;20185;-74
2023/12/17 01:09:13;;;;;;;14.77;8.00;;;2.90;87.80;;;;;;5051931;28;20191;-75
2023/12/17 01:11:39;;;;;;;14.20;7.90;;;2.80;87.80;;;;;;5036097;28;20258;-73
2023/12/17 01:14:05;;;;;;;11.68;7.53;;;2.90;87.80;;;;;;5046554;28;20185;-74
2023/12/17 01:16:30;;;;;;;21.37;10.83;;;2.90;87.80;;;;;;5040484;28;20187;-74
2023/12/17 01:18:56;;;;;;;21.67;11.07;;;2.80;87.70;;;;;;5040873;28;20255;-74
2023/12/17 01:21:22;;;;;;;20.80;10.83;;;2.80;87.70;;;;;;5039293;28;20248;-73
2023/12/17 01:23:47;;;;;;;18.97;10.80;;;2.80;87.70;;;;;;5041199;28;20181;-74
2023/12/17 01:26:22;;;;;;;19.10;10.40;;;2.80;87.40;;;;;;5040895;28;20181;-73
2023/12/17 01:28:49;;;;;;;19.85;10.65;;;2.70;87.00;;;;;;5049947;28;20184;-74
2023/12/17 01:31:15;;;;;;;19.08;9.70;;;2.60;86.90;;;;;;5032930;28;20215;-74
2023/12/17 01:33:41;;;;;;;18.65;10.65;;;2.50;87.00;;;;;;5042053;28;20181;-74
2023/12/17 01:36:07;;;;;;;19.83;10.30;;;2.60;87.30;;;;;;5040441;28;20755;-74
2023/12/17 01:38:33;;;;;;;17.40;9.07;;;2.50;87.40;;;;;;5045611;28;20204;-74
2023/12/17 01:40:58;;;;;;;20.93;10.70;;;2.60;87.70;;;;;;5036919;28;20677;-73
2023/12/17 01:43:24;;;;;;;12.97;6.90;;;2.60;87.60;;;;;;5033714;28;20666;-73
2023/12/17 01:45:51;;;;;;;12.33;7.10;;;2.50;87.60;;;;;;5038606;28;20696;-74
2023/12/17 01:48:17;;;;;;;11.10;6.70;;;2.60;87.70;;;;;;5040844;28;20260;-74
2023/12/17 01:50:43;;;;;;;12.80;6.63;;;2.50;87.70;;;;;;5039023;28;20553;-73
2023/12/17 01:53:08;;;;;;;18.53;6.90;;;2.40;87.80;;;;;;5035417;28;20209;-75
2023/12/17 01:55:34;;;;;;;18.87;6.90;;;2.40;88.00;;;;;;5040018;28;20675;-74
2023/12/17 01:58:02;;;;;;;15.47;7.50;;;2.40;88.00;;;;;;5042619;28;20277;-74
2023/12/17 02:00:29;;;;;;;11.37;6.10;;;2.40;88.30;;;;;;5040033;28;20677;-73
2023/12/17 02:02:54;;;;;;;12.18;6.57;;;2.50;88.30;;;;;;5039131;28;20435;-73
2023/12/17 02:05:20;;;;;;;8.83;5.27;;;2.50;88.30;;;;;;5049324;28;20177;-74
2023/12/17 02:07:46;;;;;;;12.63;6.10;;;2.50;88.40;;;;;;5056554;28;20189;-75
2023/12/17 02:10:12;;;;;;;23.35;10.05;;;2.60;88.30;;;;;;5041745;28;20198;-75
2023/12/17 02:12:37;;;;;;;19.83;9.87;;;2.50;88.30;;;;;;5045746;28;20208;-75
2023/12/17 02:15:03;;;;;;;23.03;9.33;;;2.50;88.10;;;;;;5056846;28;20256;-75
2023/12/17 02:17:31;;;;;;;22.93;9.80;;;2.50;88.10;;;;;;5053787;28;20215;-75
2023/12/17 02:19:56;;;;;;;19.33;9.88;;;2.40;87.60;;;;;;5054668;28;20466;-76
2023/12/17 02:22:26;;;;;;;21.23;9.77;;;2.30;87.60;;;;;;5051815;28;20302;-74
2023/12/17 02:24:53;;;;;;;18.50;9.35;;;2.20;87.70;;;;;;5042748;28;20208;-75
2023/12/17 02:27:23;;;;;;;13.35;7.93;;;2.20;87.80;;;;;;5048941;28;20258;-74
2023/12/17 02:29:53;;;;;;;19.17;9.00;;;2.10;87.80;;;;;;5043553;28;20223;-74
2023/12/17 02:32:23;;;;;;;25.58;9.95;;;2.10;87.80;;;;;;5045242;28;20565;-76
2023/12/17 02:34:52;;;;;;;21.83;9.65;;;2.10;88.10;;;;;;5045093;28;20173;-76
2023/12/17 02:37:19;;;;;;;22.98;10.52;;;2.20;88.30;;;;;;5047135;28;20553;-75
2023/12/17 02:39:44;;;;;;;18.20;9.70;;;2.20;88.30;;;;;;5043875;28;20216;-75
2023/12/17 02:42:10;;;;;;;17.10;9.63;;;2.10;88.10;;;;;;5036905;28;20177;-74
2023/12/17 02:44:35;;;;;;;18.73;10.13;;;2.10;88.10;;;;;;5042063;28;20180;-75
2023/12/17 02:47:01;;;;;;;19.60;10.03;;;2.00;88.30;;;;;;5040041;28;20232;-75
2023/12/17 02:49:28;;;;;;;19.57;10.10;;;2.10;88.30;;;;;;5045823;28;20784;-75
2023/12/17 02:51:55;;;;;;;20.90;10.38;;;2.10;88.40;;;;;;5044343;28;20207;-75
2023/12/17 02:54:21;;;;;;;23.33;11.13;;;2.10;88.40;;;;;;5045627;28;20213;-74
2023/12/17 02:56:47;;;;;;;19.15;11.13;;;2.20;88.60;;;;;;5049982;28;20259;-73
2023/12/17 02:59:14;;;;;;;20.23;11.57;;;2.20;88.40;;;;;;5051059;28;20212;-74
2023/12/17 03:01:41;;;;;;;23.05;11.50;;;2.10;88.10;;;;;;5047199;28;20610;-73
2023/12/17 03:04:07;;;;;;;18.15;10.82;;;2.00;88.00;;;;;;5049207;28;20184;-73
2023/12/17 03:06:33;;;;;;;14.13;7.93;;;2.00;88.10;;;;;;5054778;28;20657;-74
2023/12/17 03:08:58;;;;;;;15.43;8.40;;;2.00;88.10;;;;;;5056090;28;20184;-74
2023/12/17 03:11:24;;;;;;;20.90;9.10;;;2.00;88.30;;;;;;5042828;28;20303;-75
2023/12/17 03:13:50;;;;;;;11.23;7.30;;;2.00;88.40;;;;;;5055082;28;20189;-74
2023/12/17 03:16:15;;;;;;;25.83;9.97;;;2.00;88.40;;;;;;5049119;28;20689;-74
2023/12/17 03:18:41;;;;;;;16.20;9.20;;;2.00;88.60;;;;;;5043719;28;20196;-75
2023/12/17 03:21:07;;;;;;;22.50;11.70;;;2.00;88.60;;;;;;5041323;28;20214;-74
2023/12/17 03:23:36;;;;;;;19.17;12.15;;;2.00;88.40;;;;;;5043005;28;20189;-74
2023/12/17 03:26:03;;;;;;;24.45;12.52;;;2.00;88.40;;;;;;5045778;28;20197;-74
2023/12/17 03:28:28;;;;;;;25.95;12.32;;;1.90;88.10;;;;;;5043803;28;20181;-75
2023/12/17 03:30:54;;;;;;;23.93;12.47;;;1.90;88.30;;;;;;5042973;28;20216;-74
2023/12/17 03:33:20;;;;;;;23.30;13.40;;;1.90;88.30;;;;;;5049012;28;20771;-73
2023/12/17 03:35:46;;;;;;;22.10;12.10;;;1.80;88.30;;;;;;5044366;28;20177;-76
2023/12/17 03:38:12;;;;;;;23.35;12.35;;;1.80;88.30;;;;;;5054631;28;20271;-74
2023/12/17 03:40:38;;;;;;;24.87;13.00;;;1.80;88.40;;;;;;5045740;28;20292;-75
2023/12/17 03:43:03;;;;;;;22.43;10.63;;;1.90;88.40;;;;;;5048712;28;20419;-75
2023/12/17 03:45:29;;;;;;;20.23;11.00;;;1.90;88.60;;;;;;5041173;28;20176;-76
2023/12/17 03:47:55;;;;;;;26.70;12.30;;;2.00;88.60;;;;;;5053676;28;20189;-74
2023/12/17 03:50:20;;;;;;;20.13;10.43;;;1.90;88.40;;;;;;5045161;28;20213;-74
2023/12/17 03:52:47;;;;;;;17.70;11.57;;;1.80;88.40;;;;;;5047662;28;20248;-75
2023/12/17 03:55:14;;;;;;;24.90;11.80;;;1.80;88.40;;;;;;5051018;28;20751;-75
2023/12/17 03:57:39;;;;;;;20.40;11.35;;;1.80;88.70;;;;;;5051766;28;20672;-75
2023/12/17 04:00:06;;;;;;;20.60;12.03;;;1.90;88.70;;;;;;5047405;28;20205;-76
2023/12/17 04:02:32;;;;;;;21.30;11.45;;;1.90;88.70;;;;;;5038778;28;20420;-74
2023/12/17 04:04:58;;;;;;;25.73;12.73;;;1.90;88.60;;;;;;5040331;28;20178;-74
2023/12/17 04:07:26;;;;;;;21.50;12.60;;;1.80;88.60;;;;;;5043120;28;20727;-74
2023/12/17 04:09:52;;;;;;;24.98;12.15;;;1.80;88.60;;;;;;5040281;28;20463;-73
2023/12/17 04:12:18;;;;;;;22.70;12.25;;;1.80;88.60;;;;;;5047105;28;20207;-73
2023/12/17 04:14:44;;;;;;;20.73;10.97;;;1.70;88.70;;;;;;5041521;28;20602;-74
2023/12/17 04:17:09;;;;;;;25.23;12.83;;;1.80;88.90;;;;;;5043008;28;20416;-73
2023/12/17 04:19:35;;;;;;;26.40;11.60;;;1.90;88.90;;;;;;5037952;28;20201;-74
2023/12/17 04:22:00;;;;;;;21.63;11.63;;;1.80;88.70;;;;;;5038993;28;20185;-74
2023/12/17 04:24:26;;;;;;;21.23;12.30;;;1.90;88.90;;;;;;5035247;28;20908;-74
2023/12/17 04:26:52;;;;;;;23.63;12.93;;;1.90;88.90;;;;;;5049079;28;20317;-73
2023/12/17 04:29:18;;;;;;;23.23;12.60;;;1.90;88.70;;;;;;5038045;28;20188;-74
2023/12/17 04:31:44;;;;;;;23.17;11.55;;;1.90;88.70;;;;;;5036649;28;20747;-74
2023/12/17 04:34:10;;;;;;;26.53;12.43;;;1.90;88.60;;;;;;5039747;28;20265;-74
2023/12/17 04:36:37;;;;;;;23.90;11.63;;;2.00;88.60;;;;;;5047242;28;20580;-73
2023/12/17 04:39:03;;;;;;;24.20;12.35;;;2.00;88.30;;;;;;5039251;28;20720;-75
2023/12/17 04:41:29;;;;;;;21.00;11.60;;;1.80;88.00;;;;;;5043853;28;20291;-73
2023/12/17 04:43:54;;;;;;;17.87;10.30;;;1.80;88.00;;;;;;5037267;28;20423;-74
2023/12/17 04:46:20;;;;;;;19.87;11.37;;;1.80;88.00;;;;;;5047097;28;20238;-76
2023/12/17 04:48:46;;;;;;;20.80;11.93;;;1.80;88.10;;;;;;5035145;28;20267;-74
2023/12/17 04:51:11;;;;;;;26.33;12.40;;;1.80;88.10;;;;;;5038279;28;20204;-73
2023/12/17 04:53:37;;;;;;;21.67;10.90;;;1.90;88.10;;;;;;5041880;28;20192;-75
2023/12/17 04:56:04;;;;;;;21.00;11.70;;;1.90;88.10;;;;;;5040460;28;20261;-76
2023/12/17 04:58:29;;;;;;;21.83;11.63;;;1.90;88.00;;;;;;5035248;28;20267;-75
2023/12/17 05:00:59;;;;;;;22.73;11.27;;;1.80;87.80;;;;;;5036073;28;20347;-73
2023/12/17 05:03:25;;;;;;;26.45;12.20;;;1.90;88.00;;;;;;5045516;28;20189;-73
2023/12/17 05:05:51;;;;;;;21.83;11.98;;;1.80;88.00;;;;;;5038478;28;20190;-76
2023/12/17 05:08:17;;;;;;;19.03;10.23;;;1.70;87.80;;;;;;5041463;28;20550;-75
2023/12/17 05:10:43;;;;;;;21.42;10.95;;;1.70;88.00;;;;;;5037413;28;20301;-75
2023/12/17 05:13:08;;;;;;;24.77;12.17;;;1.80;88.10;;;;;;5038643;28;20295;-74
2023/12/17 05:15:34;;;;;;;21.50;11.27;;;1.80;88.40;;;;;;5056653;28;20176;-76
2023/12/17 05:18:00;;;;;;;21.03;11.40;;;1.80;88.40;;;;;;5038944;28;20523;-75
2023/12/17 05:20:25;;;;;;;22.27;11.50;;;1.80;88.60;;;;;;5041478;28;20201;-74
2023/12/17 05:22:51;;;;;;;21.33;11.83;;;1.90;88.60;;;;;;5042893;28;20511;-73
2023/12/17 05:25:16;;;;;;;18.07;10.73;;;1.80;88.60;;;;;;5045727;28;20184;-74
2023/12/17 05:27:42;;;;;;;19.23;10.77;;;1.80;88.60;;;;;;5049192;28;20605;-75
2023/12/17 05:30:08;;;;;;;26.17;11.20;;;1.80;88.60;;;;;;5047434;28;20208;-74
2023/12/17 05:32:34;;;;;;;22.97;12.90;;;1.80;88.60;;;;;;5034606;28;20209;-75
2023/12/17 05:35:00;;;;;;;20.17;11.37;;;1.80;88.60;;;;;;5043761;28;20423;-74
2023/12/17 05:37:25;;;;;;;17.97;10.33;;;1.80;88.60;;;;;;5044982;28;20218;-74
2023/12/17 05:39:51;;;;;;;17.90;10.60;;;1.80;88.70;;;;;;5035319;28;20309;-74
2023/12/17 05:42:16;;;;;;;21.73;10.53;;;1.80;88.70;;;;;;5037041;28;20196;-74
2023/12/17 05:44:42;;;;;;;20.27;10.87;;;1.80;88.70;;;;;;5038599;28;20181;-75
2023/12/17 05:47:07;;;;;;;19.90;10.07;;;1.80;88.70;;;;;;5044103;28;20186;-74
2023/12/17 05:49:37;;;;;;;19.17;11.27;;;1.80;88.70;;;;;;5041477;28;20189;-74
2023/12/17 05:52:03;;;;;;;21.05;11.10;;;1.80;88.70;;;;;;5045903;28;20318;-74
2023/12/17 05:54:30;;;;;;;19.88;11.20;;;1.80;88.70;;;;;;5040115;28;20193;-75
2023/12/17 05:56:55;;;;;;;21.33;10.75;;;1.80;88.70;;;;;;5043529;28;20181;-74
2023/12/17 05:59:21;;;;;;;19.77;11.67;;;1.80;88.70;;;;;;5039732;28;21111;-74
2023/12/17 06:01:46;;;;;;;19.37;10.53;;;1.90;88.70;;;;;;5043583;28;20211;-75
2023/12/17 06:04:12;;;;;;;21.17;11.63;;;1.90;88.70;;;;;;5043272;28;20184;-75
2023/12/17 06:06:38;;;;;;;24.50;13.67;;;1.90;88.70;;;;;;5047296;28;20189;-75
2023/12/17 06:09:03;;;;;;;32.27;15.27;;;1.80;88.70;;;;;;5047212;28;20647;-75
2023/12/17 06:11:29;;;;;;;24.57;13.97;;;1.80;88.70;;;;;;5041092;28;20247;-76
2023/12/17 06:13:54;;;;;;;30.73;15.10;;;1.70;88.70;;;;;;5050641;28;20671;-75
2023/12/17 06:16:20;;;;;;;22.30;13.07;;;1.50;88.70;;;;;;5045064;28;20185;-76
2023/12/17 06:18:46;;;;;;;26.07;14.03;;;1.50;88.60;;;;;;5044839;28;20726;-75
2023/12/17 06:21:26;;;;;;;24.85;14.52;;;1.50;88.70;;;;;;5042410;28;20201;-74
2023/12/17 06:23:57;;;;;;;23.65;15.25;;;1.50;88.70;;;;;;5038654;28;20185;-74
2023/12/17 06:26:23;;;;;;;25.63;14.30;;;1.50;88.70;;;;;;5053001;28;20192;-75
2023/12/17 06:28:49;;;;;;;26.02;14.43;;;1.40;88.90;;;;;;5044491;28;20180;-74
2023/12/17 06:31:15;;;;;;;26.27;15.47;;;1.40;88.70;;;;;;5040894;28;20246;-75
2023/12/17 06:33:40;;;;;;;20.40;13.03;;;1.40;88.90;;;;;;5044752;28;20677;-74
2023/12/17 06:36:06;;;;;;;25.43;14.10;;;1.30;88.90;;;;;;5037851;28;20264;-74
2023/12/17 06:38:32;;;;;;;29.83;14.60;;;1.30;89.00;;;;;;5047032;28;20264;-74
2023/12/17 06:40:57;;;;;;;25.80;13.70;;;1.40;89.00;;;;;;5042902;28;20446;-75
2023/12/17 06:43:23;;;;;;;25.50;14.63;;;1.40;89.00;;;;;;5044080;28;20560;-74
2023/12/17 06:45:49;;;;;;;28.20;13.77;;;1.30;88.90;;;;;;5040438;28;20205;-74
2023/12/17 06:48:14;;;;;;;25.93;14.77;;;1.20;88.90;;;;;;5048332;28;20181;-74
2023/12/17 06:50:40;;;;;;;25.80;15.90;;;1.20;88.70;;;;;;5042934;28;20224;-75
2023/12/17 06:53:05;;;;;;;22.67;13.30;;;1.30;89.00;;;;;;5039621;28;20220;-73
2023/12/17 06:55:31;;;;;;;25.13;14.47;;;1.40;89.00;;;;;;5058303;28;20231;-73
2023/12/17 06:57:56;;;;;;;17.70;11.73;;;1.40;89.00;;;;;;5043688;28;20189;-74
2023/12/17 07:00:22;;;;;;;23.77;12.27;;;1.40;88.70;;;;;;5048261;28;20212;-75
2023/12/17 07:02:48;;;;;;;24.17;12.73;;;1.40;88.70;;;;;;5042241;28;20181;-74
2023/12/17 07:05:13;;;;;;;24.30;14.20;;;1.50;88.70;;;;;;5045596;28;20600;-75
2023/12/17 07:07:39;;;;;;;23.43;13.47;;;1.40;88.60;;;;;;5044426;28;20181;-74
2023/12/17 07:10:06;;;;;;;24.90;14.20;;;1.40;88.40;;;;;;5041579;28;20204;-75
2023/12/17 07:12:32;;;;;;;25.10;13.82;;;1.40;88.60;;;;;;5045829;28;20200;-74
2023/12/17 07:14:57;;;;;;;27.03;14.80;;;1.30;88.60;;;;;;5060483;28;20179;-73
2023/12/17 07:17:23;;;;;;;29.60;14.00;;;1.40;88.70;;;;;;5041074;28;20268;-75
2023/12/17 07:19:49;;;;;;;22.93;12.90;;;1.30;88.70;;;;;;5040232;28;20197;-74
2023/12/17 07:22:14;;;;;;;22.10;12.20;;;1.40;88.70;;;;;;5036397;28;20339;-75
2023/12/17 07:24:40;;;;;;;22.17;12.30;;;1.50;88.70;;;;;;5048853;28;20427;-75
2023/12/17 07:27:06;;;;;;;21.27;12.20;;;1.50;89.00;;;;;;5036894;28;20269;-73
2023/12/17 07:29:31;;;;;;;22.67;12.57;;;1.60;89.00;;;;;;5041165;28;20181;-73
2023/12/17 07:31:57;;;;;;;30.87;15.20;;;1.70;88.90;;;;;;5041639;28;20269;-73
2023/12/17 07:34:23;;;;;;;27.20;13.67;;;1.60;88.90;;;;;;5042467;28;20185;-73
2023/12/17 07:36:48;;;;;;;20.93;12.17;;;1.60;88.70;;;;;;5038826;28;20200;-75
2023/12/17 07:39:14;;;;;;;24.33;12.93;;;1.60;88.90;;;;;;5048273;28;20819;-73
2023/12/17 07:41:39;;;;;;;22.27;11.50;;;1.60;88.90;;;;;;5047976;28;20227;-74
2023/12/17 07:44:05;;;;;;;21.73;10.70;;;1.70;89.00;;;;;;5050242;28;20188;-74
2023/12/17 07:46:31;;;;;;;20.83;11.67;;;1.80;89.20;;;;;;5047983;28;20183;-74
2023/12/17 07:48:56;;;;;;;23.67;12.47;;;1.90;89.20;;;;;;5059963;28;20184;-73
2023/12/17 07:51:22;;;;;;;22.60;11.53;;;1.90;89.00;;;;;;5050716;28;20709;-76
2023/12/17 07:53:47;;;;;;;24.17;12.40;;;2.00;88.90;;;;;;5039251;28;20188;-72
2023/12/17 07:56:14;;;;;;;24.83;12.80;;;1.90;88.90;;;;;;5044390;28;20710;-75
2023/12/17 07:58:40;;;;;;;23.40;11.17;;;2.00;88.90;;;;;;5049625;28;20184;-73
2023/12/17 08:01:05;;;;;;;21.47;11.60;;;2.00;88.90;;;;;;5045590;28;20671;-74
2023/12/17 08:03:31;;;;;;;24.37;12.40;;;2.00;88.30;;;;;;5042053;28;20181;-74
2023/12/17 08:05:57;;;;;;;19.83;12.77;;;1.90;88.10;;;;;;5043396;28;20470;-75
2023/12/17 08:08:22;;;;;;;21.17;12.53;;;2.00;88.10;;;;;;5041854;28;20195;-73
2023/12/17 08:10:48;;;;;;;20.77;12.40;;;2.00;88.10;;;;;;5033631;28;20213;-73
2023/12/17 08:13:15;;;;;;;21.70;11.87;;;2.00;88.10;;;;;;5038624;28;20212;-74
2023/12/17 08:15:40;;;;;;;18.80;11.68;;;2.00;88.10;;;;;;5038077;28;20181;-75
2023/12/17 08:18:06;;;;;;;20.47;11.30;;;2.10;88.00;;;;;;5039342;28;20200;-73
2023/12/17 08:20:32;;;;;;;21.87;12.40;;;2.20;88.00;;;;;;5033482;28;20697;-72
2023/12/17 08:22:57;;;;;;;19.37;11.47;;;2.20;88.00;;;;;;5041910;28;20272;-74
2023/12/17 08:25:23;;;;;;;22.60;12.07;;;2.30;87.80;;;;;;5043828;28;20193;-72
2023/12/17 08:27:48;;;;;;;23.23;13.13;;;2.30;87.80;;;;;;5039015;28;20734;-74
2023/12/17 08:30:14;;;;;;;17.03;10.70;;;2.30;87.80;;;;;;5035348;28;20741;-74
2023/12/17 08:32:40;;;;;;;22.60;11.73;;;2.40;88.00;;;;;;5040494;28;20224;-74
2023/12/17 08:35:06;;;;;;;18.10;10.23;;;2.50;88.00;;;;;;5045225;28;20497;-76
2023/12/17 08:37:32;;;;;;;22.33;11.13;;;2.50;87.80;;;;;;5040160;28;20181;-75
2023/12/17 08:39:57;;;;;;;22.33;12.00;;;2.60;87.70;;;;;;5043297;28;20684;-76
2023/12/17 08:42:23;;;;;;;21.17;12.73;;;2.60;87.70;;;;;;5044560;28;20188;-77
2023/12/17 08:44:49;;;;;;;25.80;12.70;;;2.70;87.70;;;;;;5048526;28;20177;-75
2023/12/17 08:47:15;;;;;;;27.43;13.60;;;2.80;87.70;;;;;;5037478;28;20188;-75
2023/12/17 08:49:41;;;;;;;19.60;11.93;;;2.90;87.70;;;;;;5041251;28;20475;-75
2023/12/17 08:52:07;;;;;;;18.70;11.90;;;2.90;87.70;;;;;;5033988;28;20467;-76
2023/12/17 08:54:32;;;;;;;17.80;10.57;;;3.00;87.70;;;;;;5042773;28;20522;-75
2023/12/17 08:56:58;;;;;;;19.50;11.00;;;3.00;87.40;;;;;;5040152;28;20239;-77
2023/12/17 08:59:23;;;;;;;21.63;12.07;;;3.10;87.30;;;;;;5046106;28;20642;-75
2023/12/17 09:01:49;;;;;;;17.87;11.57;;;3.10;87.10;;;;;;5044620;28;20203;-75
2023/12/17 09:04:15;;;;;;;19.50;11.57;;;3.20;87.10;;;;;;5046669;28;20185;-76
2023/12/17 09:06:45;;;;;;;21.33;11.87;;;3.30;87.10;;;;;;5042607;28;20412;-75
2023/12/17 09:09:14;;;;;;;21.20;11.13;;;3.30;87.00;;;;;;5044106;28;20173;-75
2023/12/17 09:11:40;;;;;;;21.00;11.87;;;3.40;87.00;;;;;;5047141;28;20513;-77
2023/12/17 09:14:07;;;;;;;21.10;12.07;;;3.40;87.00;;;;;;5041627;28;20424;-76
2023/12/17 09:16:34;;;;;;;21.07;12.97;;;3.50;87.00;;;;;;5038639;28;21132;-76
2023/12/17 09:19:00;;;;;;;25.33;13.03;;;3.50;86.90;;;;;;5046770;28;20923;-75
2023/12/17 09:21:25;;;;;;;28.93;13.90;;;3.60;86.50;;;;;;5042645;28;20478;-76
2023/12/17 09:23:52;;;;;;;26.30;13.97;;;3.60;86.20;;;;;;5047362;28;20741;-77
2023/12/17 09:26:18;;;;;;;23.40;14.23;;;3.60;85.90;;;;;;5049531;28;20578;-75
2023/12/17 09:28:44;;;;;;;27.93;16.70;;;3.60;85.90;;;;;;5049951;28;20503;-76
2023/12/17 09:31:11;;;;;;;30.55;17.45;;;3.50;85.70;;;;;;5048389;28;20439;-75
2023/12/17 09:33:40;;;;;;;29.47;16.97;;;3.50;85.50;;;;;;5051665;28;20217;-77
2023/12/17 09:36:07;;;;;;;25.77;16.33;;;3.50;85.60;;;;;;5060384;28;20435;-75
2023/12/17 09:38:37;;;;;;;27.10;17.00;;;3.40;85.50;;;;;;5051386;28;20454;-76
2023/12/17 09:41:07;;;;;;;29.13;16.40;;;3.30;85.60;;;;;;5050294;28;20514;-77
2023/12/17 09:43:33;;;;;;;29.90;17.38;;;3.20;85.60;;;;;;5054607;28;20432;-77
2023/12/17 09:45:59;;;;;;;26.23;15.60;;;3.20;85.70;;;;;;5054466;28;20185;-76
2023/12/17 09:48:25;;;;;;;28.40;15.00;;;3.20;85.90;;;;;;5051391;28;20561;-77
2023/12/17 09:50:50;;;;;;;24.10;15.17;;;3.40;85.90;;;;;;5044837;28;20542;-78
2023/12/17 09:53:16;;;;;;;25.70;15.43;;;3.60;86.00;;;;;;5047456;28;20266;-77
2023/12/17 09:55:43;;;;;;;27.10;15.47;;;3.50;85.60;;;;;;5050139;28;20204;-76
2023/12/17 09:58:12;;;;;;;27.53;14.70;;;3.40;85.20;;;;;;5051460;28;20191;-76
2023/12/17 10:00:38;;;;;;;26.33;15.43;;;3.40;85.30;;;;;;5044427;28;20872;-75
2023/12/17 10:03:04;;;;;;;33.87;18.00;;;3.40;85.20;;;;;;5045642;28;20411;-73
2023/12/17 10:05:30;;;;;;;23.63;14.63;;;3.30;85.00;;;;;;5046332;28;20275;-74
2023/12/17 10:07:56;;;;;;;25.60;14.48;;;3.30;85.20;;;;;;5045637;28;21115;-75
2023/12/17 10:10:21;;;;;;;23.00;14.73;;;3.40;85.30;;;;;;5042231;28;20208;-73
2023/12/17 10:12:47;;;;;;;21.70;13.70;;;3.50;85.20;;;;;;5049218;28;20303;-74
2023/12/17 10:15:17;;;;;;;23.63;14.50;;;3.60;85.20;;;;;;5052113;28;20187;-75
2023/12/17 10:17:43;;;;;;;23.77;15.23;;;3.70;85.00;;;;;;5055553;28;20468;-72
2023/12/17 10:20:09;;;;;;;25.03;13.97;;;3.90;84.90;;;;;;5053388;28;20463;-75
2023/12/17 10:22:34;;;;;;;25.40;14.40;;;4.00;84.70;;;;;;5050020;28;20610;-74
2023/12/17 10:25:00;;;;;;;21.50;13.50;;;4.00;84.30;;;;;;5055889;28;20414;-73
2023/12/17 10:27:27;;;;;;;22.07;15.83;;;4.10;84.00;;;;;;5052187;28;20207;-73
2023/12/17 10:29:53;;;;;;;24.47;14.37;;;4.20;83.80;;;;;;5045392;28;20246;-73
2023/12/17 10:32:24;;;;;;;22.30;13.90;;;4.20;83.30;;;;;;5043394;28;20551;-73
2023/12/17 10:34:50;;;;;;;23.83;14.13;;;4.30;83.10;;;;;;5046223;28;20411;-75
2023/12/17 10:37:21;;;;;;;23.90;14.07;;;4.40;83.10;;;;;;5052014;28;20408;-74
2023/12/17 10:39:50;;;;;;;21.60;13.20;;;4.60;83.30;;;;;;5045567;28;22084;-73
2023/12/17 10:42:20;;;;;;;25.90;14.33;;;4.80;83.30;;;;;;5045585;28;20412;-73
2023/12/17 10:44:51;;;;;;;22.30;13.77;;;5.10;83.30;;;;;;5048886;28;20939;-73
2023/12/17 10:47:21;;;;;;;21.60;13.77;;;5.30;83.30;;;;;;5047754;28;20420;-74
2023/12/17 10:49:47;;;;;;;21.23;13.80;;;5.30;82.70;;;;;;5042224;28;20460;-74
2023/12/17 10:52:14;;;;;;;22.63;14.30;;;5.10;80.80;;;;;;5041213;28;20498;-72
2023/12/17 10:54:40;;;;;;;21.17;13.87;;;5.20;80.80;;;;;;5039891;28;21027;-73
2023/12/17 10:57:15;;;;;;;21.93;13.73;;;5.20;80.00;;;;;;5041786;28;20499;-74
2023/12/17 10:59:44;;;;;;;24.07;14.10;;;5.20;80.00;;;;;;5047591;28;20220;-75
2023/12/17 11:02:13;;;;;;;25.07;14.60;;;5.40;80.00;;;;;;5044400;28;20946;-74
2023/12/17 11:04:45;;;;;;;25.03;15.50;;;5.50;80.00;;;;;;5043976;28;20419;-76
2023/12/17 11:07:15;;;;;;;23.23;14.37;;;5.50;79.50;;;;;;5042218;28;20417;-74
2023/12/17 11:09:41;;;;;;;26.43;13.93;;;5.40;79.30;;;;;;5042253;28;21121;-75
2023/12/17 11:12:07;;;;;;;20.47;13.80;;;5.60;79.70;;;;;;5053189;28;20466;-74
2023/12/17 11:14:33;;;;;;;20.40;13.20;;;5.80;79.60;;;;;;5044488;28;20419;-73
2023/12/17 11:17:00;;;;;;;22.53;14.33;;;5.70;78.90;;;;;;5044155;28;20431;-73
2023/12/17 11:19:29;;;;;;;24.17;13.90;;;5.70;79.00;;;;;;5046331;28;21099;-73
2023/12/17 11:21:55;;;;;;;22.50;13.33;;;5.80;79.30;;;;;;5044995;28;20447;-73
2023/12/17 11:24:21;;;;;;;27.20;15.70;;;6.00;79.00;;;;;;5042530;28;20466;-73
2023/12/17 11:26:48;;;;;;;27.23;16.03;;;6.00;78.40;;;;;;5044938;28;20260;-73
2023/12/17 11:29:38;;;;;;;19.57;13.43;;;5.90;78.40;;;;;;5042513;28;20451;-74
2023/12/17 11:32:05;;;;;;;23.90;14.10;;;5.80;78.60;;;;;;5054088;28;21046;-74
2023/12/17 11:34:31;;;;;;;24.80;15.03;;;5.70;78.90;;;;;;5037902;28;20922;-75
2023/12/17 11:36:58;;;;;;;23.83;14.97;;;5.70;79.00;;;;;;5040354;28;21130;-74
2023/12/17 11:39:29;;;;;;;22.83;13.70;;;5.70;79.20;;;;;;5040812;28;20431;-74
2023/12/17 11:41:55;;;;;;;21.40;14.00;;;5.70;79.50;;;;;;5044618;28;20421;-75
2023/12/17 11:44:20;;;;;;;25.80;14.50;;;5.70;79.70;;;;;;5043524;28;20430;-73
2023/12/17 11:46:47;;;;;;;25.73;14.67;;;5.70;79.90;;;;;;5048614;28;20656;-73
2023/12/17 11:49:21;;;;;;;24.50;14.50;;;5.80;79.60;;;;;;5043907;28;20180;-74
2023/12/17 11:51:47;;;;;;;20.87;13.70;;;5.80;79.70;;;;;;5042081;28;20475;-74
2023/12/17 11:54:20;;;;;;;27.50;14.93;;;5.90;79.50;;;;;;5043920;28;20931;-74
2023/12/17 11:56:47;;;;;;;24.93;14.40;;;6.00;79.20;;;;;;5044516;28;20833;-76
2023/12/17 11:59:13;;;;;;;22.70;14.73;;;6.00;79.00;;;;;;5044634;28;20445;-73
2023/12/17 12:01:38;;;;;;;22.63;13.60;;;5.90;78.70;;;;;;5042279;28;20459;-73
2023/12/17 12:04:04;;;;;;;24.60;13.60;;;5.90;78.90;;;;;;5048742;28;20181;-75
2023/12/17 12:06:30;;;;;;;23.40;13.83;;;5.90;79.00;;;;;;5049093;28;20596;-74
2023/12/17 12:08:58;;;;;;;20.93;13.43;;;6.00;79.00;;;;;;5050378;28;20426;-73
2023/12/17 12:11:31;;;;;;;22.10;12.40;;;6.10;79.20;;;;;;5042170;28;20295;-75
2023/12/17 12:13:57;;;;;;;21.00;13.70;;;6.30;78.90;;;;;;5046051;28;20423;-74
2023/12/17 12:16:22;;;;;;;21.73;12.80;;;6.40;78.70;;;;;;5042606;28;20490;-72
2023/12/17 12:19:00;;;;;;;22.80;13.13;;;6.60;78.70;;;;;;5038200;28;20851;-73
2023/12/17 12:21:26;;;;;;;25.30;14.33;;;6.50;77.80;;;;;;5039181;28;20231;-74
2023/12/17 12:23:53;;;;;;;25.63;14.73;;;6.50;77.40;;;;;;5043104;28;21200;-75
2023/12/17 12:26:19;;;;;;;28.37;15.90;;;6.30;78.10;;;;;;5046551;28;20424;-74
2023/12/17 12:28:50;;;;;;;25.60;14.57;;;6.30;78.70;;;;;;5040015;28;20991;-74
2023/12/17 12:31:16;;;;;;;23.50;14.57;;;6.30;78.90;;;;;;5037744;28;20464;-74
2023/12/17 12:33:56;;;;;;;24.70;16.13;;;6.20;78.90;;;;;;5041728;28;20459;-73